createdAt,value
2022-08-21T00:01:44.630Z,99.90
2022-08-21T00:04:14.558Z,99.90
2022-08-21T00:06:47.641Z,99.90
2022-08-21T00:09:14.373Z,99.90
2022-08-21T00:11:41.197Z,99.90
2022-08-21T00:14:09.845Z,99.90
2022-08-21T00:16:36.806Z,99.90
2022-08-21T00:19:04.482Z,99.90
2022-08-21T00:21:31.200Z,99.90
2022-08-21T00:23:57.928Z,99.90
2022-08-21T00:26:24.900Z,99.90
2022-08-21T00:28:51.681Z,99.90
2022-08-21T00:31:19.040Z,99.90
2022-08-21T00:33:46.570Z,99.90
2022-08-21T00:36:14.243Z,99.90
2022-08-21T00:38:41.406Z,99.90
2022-08-21T00:41:13.524Z,99.90
2022-08-21T00:43:57.761Z,99.90
2022-08-21T00:46:28.254Z,99.90
2022-08-21T00:48:58.702Z,99.90
2022-08-21T00:51:38.341Z,99.90
2022-08-21T00:54:06.784Z,99.90
2022-08-21T00:56:41.079Z,99.90
2022-08-21T00:59:10.922Z,99.90
2022-08-21T01:01:38.147Z,99.90
2022-08-21T01:04:04.930Z,99.90
2022-08-21T01:06:31.753Z,99.90
2022-08-21T01:08:58.699Z,99.90
2022-08-21T01:11:25.827Z,99.90
2022-08-21T01:13:53.183Z,99.90
2022-08-21T01:16:22.391Z,99.90
2022-08-21T01:18:49.967Z,99.90
2022-08-21T01:21:21.132Z,99.90
2022-08-21T01:23:51.805Z,99.90
2022-08-21T01:26:22.498Z,99.90
2022-08-21T01:29:08.727Z,99.90
2022-08-21T01:31:35.400Z,99.90
2022-08-21T01:34:02.230Z,99.90
2022-08-21T01:36:29.351Z,99.90
2022-08-21T01:38:56.898Z,99.90
2022-08-21T01:41:23.732Z,99.90
2022-08-21T01:43:50.436Z,99.90
2022-08-21T01:46:17.258Z,99.90
2022-08-21T01:48:44.212Z,99.90
2022-08-21T01:51:11.722Z,99.90
2022-08-21T01:53:39.274Z,99.90
2022-08-21T01:56:12.532Z,99.90
2022-08-21T01:58:41.057Z,99.90
2022-08-21T02:01:07.963Z,99.90
2022-08-21T02:03:35.515Z,99.90
2022-08-21T02:06:04.917Z,99.90
2022-08-21T02:08:32.621Z,99.90
2022-08-21T02:10:59.546Z,99.90
2022-08-21T02:13:26.366Z,99.90
2022-08-21T02:15:53.077Z,99.90
2022-08-21T02:18:19.726Z,99.90
2022-08-21T02:20:49.422Z,99.90
2022-08-21T02:23:26.953Z,99.90
2022-08-21T02:25:57.906Z,99.90
2022-08-21T02:28:24.652Z,99.90
2022-08-21T02:30:53.368Z,99.90
2022-08-21T02:33:20.380Z,99.90
2022-08-21T02:35:48.308Z,99.90
2022-08-21T02:38:18.363Z,99.90
2022-08-21T02:40:47.876Z,99.90
2022-08-21T02:43:16.360Z,99.90
2022-08-21T02:45:45.050Z,99.90
2022-08-21T02:48:17.021Z,99.90
2022-08-21T02:50:52.069Z,99.90
2022-08-21T02:53:19.591Z,99.90
2022-08-21T02:55:48.554Z,99.90
2022-08-21T02:58:19.071Z,99.90
2022-08-21T03:00:46.009Z,99.90
2022-08-21T03:03:14.606Z,99.90
2022-08-21T03:05:41.457Z,99.90
2022-08-21T03:08:11.166Z,99.90
2022-08-21T03:10:43.616Z,99.90
2022-08-21T03:13:10.883Z,99.90
2022-08-21T03:15:38.371Z,99.90
2022-08-21T03:18:06.183Z,99.90
2022-08-21T03:20:33.527Z,99.90
2022-08-21T03:23:01.330Z,99.90
2022-08-21T03:25:40.299Z,99.90
2022-08-21T03:28:13.423Z,99.90
2022-08-21T03:30:42.649Z,99.90
2022-08-21T03:33:12.159Z,99.90
2022-08-21T03:35:39.708Z,99.90
2022-08-21T03:38:06.345Z,99.90
2022-08-21T03:40:33.066Z,99.90
2022-08-21T03:42:59.864Z,99.90
2022-08-21T03:45:27.086Z,99.90
2022-08-21T03:47:56.838Z,99.90
2022-08-21T03:50:26.009Z,99.90
2022-08-21T03:52:53.120Z,99.90
2022-08-21T03:55:20.258Z,99.90
2022-08-21T03:57:47.103Z,99.90
2022-08-21T04:00:15.415Z,99.90
2022-08-21T04:02:44.527Z,99.90
2022-08-21T04:05:12.839Z,99.90
2022-08-21T04:07:39.589Z,99.90
2022-08-21T04:10:08.002Z,99.90
2022-08-21T04:12:34.662Z,99.90
2022-08-21T04:15:02.780Z,99.90
2022-08-21T04:17:29.508Z,99.90
2022-08-21T04:19:56.180Z,99.90
2022-08-21T04:22:23.256Z,99.90
2022-08-21T04:24:50.752Z,99.90
2022-08-21T04:27:17.413Z,99.90
2022-08-21T04:29:44.087Z,99.90
2022-08-21T04:32:10.780Z,99.90
2022-08-21T04:34:37.499Z,99.90
2022-08-21T04:37:05.466Z,99.90
2022-08-21T04:39:32.305Z,99.90
2022-08-21T04:41:58.963Z,99.90
2022-08-21T04:44:25.674Z,99.90
2022-08-21T04:46:52.358Z,99.90
2022-08-21T04:49:19.029Z,99.90
2022-08-21T04:51:45.691Z,99.90
2022-08-21T04:54:23.742Z,99.90
2022-08-21T04:56:53.987Z,99.90
2022-08-21T04:59:27.503Z,99.90
2022-08-21T05:01:58.693Z,99.90
2022-08-21T05:04:31.017Z,99.90
2022-08-21T05:07:00.927Z,99.90
2022-08-21T05:09:28.322Z,99.90
2022-08-21T05:11:56.351Z,99.90
2022-08-21T05:14:22.998Z,99.90
2022-08-21T05:16:49.690Z,99.90
2022-08-21T05:19:16.457Z,99.90
2022-08-21T05:21:45.372Z,99.90
2022-08-21T05:24:12.435Z,99.90
2022-08-21T05:26:46.416Z,99.90
2022-08-21T05:29:16.397Z,99.90
2022-08-21T05:31:43.746Z,99.90
2022-08-21T05:34:10.487Z,99.90
2022-08-21T05:36:37.678Z,99.90
2022-08-21T05:39:04.703Z,99.90
2022-08-21T05:41:31.474Z,99.90
2022-08-21T05:44:01.011Z,99.90
2022-08-21T05:46:27.720Z,99.90
2022-08-21T05:48:54.349Z,99.90
2022-08-21T05:51:21.372Z,99.90
2022-08-21T05:53:48.368Z,99.90
2022-08-21T05:56:15.928Z,99.90
2022-08-21T05:58:43.024Z,99.90
2022-08-21T06:01:10.217Z,99.90
2022-08-21T06:03:40.247Z,99.90
2022-08-21T06:06:07.075Z,99.90
2022-08-21T06:08:34.993Z,99.90
2022-08-21T06:11:03.405Z,99.90
2022-08-21T06:13:30.314Z,99.90
2022-08-21T06:16:06.053Z,99.90
2022-08-21T06:18:33.518Z,99.90
2022-08-21T06:21:00.188Z,99.90
2022-08-21T11:39:15.871Z,99.90
2022-08-21T11:41:58.830Z,99.90
2022-08-21T11:44:45.549Z,99.90
2022-08-21T11:47:20.742Z,99.90
2022-08-21T11:50:34.233Z,99.90
2022-08-21T12:50:09.649Z,99.90
2022-08-21T12:52:39.592Z,99.90
2022-08-21T12:55:08.206Z,99.90
2022-08-21T12:57:37.987Z,99.90
2022-08-21T13:00:12.851Z,99.90
2022-08-21T13:02:47.057Z,99.90
2022-08-21T13:05:17.163Z,99.90
2022-08-21T13:07:48.898Z,99.90
2022-08-21T13:10:19.481Z,99.90
2022-08-21T13:20:28.433Z,99.90
2022-08-21T13:22:55.194Z,99.90
2022-08-21T13:25:28.163Z,99.90
2022-08-21T13:28:15.780Z,99.90
2022-08-21T13:30:46.651Z,99.90
2022-08-21T13:33:16.617Z,99.90
2022-08-21T13:36:01.577Z,99.90
2022-08-21T14:11:22.966Z,99.90
2022-08-21T14:26:51.834Z,99.90
2022-08-21T14:29:25.015Z,99.90
2022-08-21T14:32:00.445Z,99.90
2022-08-21T14:34:32.984Z,99.90
2022-08-21T14:37:02.707Z,99.90
2022-08-21T14:39:29.458Z,99.90
2022-08-21T14:41:58.235Z,99.90
2022-08-21T14:44:24.923Z,99.90
2022-08-21T14:46:55.614Z,99.90
2022-08-21T14:49:27.059Z,99.90
2022-08-21T14:51:57.836Z,99.90
2022-08-21T14:59:27.611Z,99.90
2022-08-21T15:01:54.390Z,99.90
2022-08-21T16:23:17.355Z,99.90
2022-08-21T16:25:45.151Z,89.70
2022-08-21T16:28:15.667Z,91.20
2022-08-21T16:48:01.170Z,91.20
2022-08-21T16:50:27.919Z,76.40
2022-08-21T16:52:54.710Z,77.30
2022-08-21T16:55:21.431Z,80.40
2022-08-21T16:57:48.234Z,79.50
2022-08-21T17:00:15.753Z,79.80
2022-08-21T17:02:49.304Z,82.70
2022-08-21T17:05:17.231Z,84.90
2022-08-21T17:07:45.162Z,81.80
2022-08-21T17:10:14.438Z,83.60
2022-08-21T17:12:43.305Z,82.30
2022-08-21T17:15:21.378Z,81.70
2022-08-21T17:17:49.342Z,81.50
2022-08-21T17:20:16.508Z,82.00
2022-08-21T17:22:43.836Z,82.20
2022-08-21T17:25:10.632Z,80.70
2022-08-21T17:27:37.884Z,81.90
2022-08-21T17:30:06.947Z,81.90
2022-08-21T17:32:33.831Z,82.20
2022-08-21T17:35:00.480Z,82.40
2022-08-21T17:37:29.305Z,86.90
2022-08-21T17:39:57.292Z,88.50
2022-08-21T17:42:25.164Z,90.50
2022-08-21T17:44:52.576Z,92.50
2022-08-21T17:47:19.517Z,93.10
2022-08-21T17:49:46.320Z,94.10
2022-08-21T17:52:13.172Z,96.60
2022-08-21T17:54:41.067Z,97.50
2022-08-21T17:57:12.921Z,99.60
2022-08-21T17:59:40.207Z,99.90
2022-08-21T18:02:09.931Z,99.90
2022-08-21T18:04:46.681Z,99.90
2022-08-21T18:07:31.969Z,99.90
2022-08-21T18:10:00.957Z,99.90
2022-08-21T18:12:28.404Z,99.90
2022-08-21T18:14:55.223Z,99.90
2022-08-21T18:17:23.724Z,99.90
2022-08-21T18:19:50.593Z,99.90
2022-08-21T18:22:17.379Z,99.90
2022-08-21T18:24:44.305Z,99.90
2022-08-21T18:27:13.389Z,99.90
2022-08-21T18:29:47.073Z,99.90
2022-08-21T18:32:30.667Z,99.90
2022-08-21T18:34:59.849Z,99.90
2022-08-21T18:37:26.670Z,99.90
2022-08-21T18:39:53.429Z,99.90
2022-08-21T18:42:20.246Z,99.90
2022-08-21T18:44:58.976Z,99.90
2022-08-21T18:47:32.560Z,99.90
2022-08-21T18:49:59.516Z,99.90
2022-08-21T18:52:28.614Z,99.90
2022-08-21T18:54:55.602Z,99.90
2022-08-21T18:57:25.076Z,99.90
2022-08-21T18:59:51.792Z,99.90
2022-08-21T19:02:19.150Z,99.90
2022-08-21T19:04:47.018Z,99.90
2022-08-21T19:07:16.187Z,99.90
2022-08-21T19:12:31.246Z,99.90
2022-08-21T19:14:58.910Z,99.90
2022-08-21T19:17:26.078Z,99.90
2022-08-21T19:20:03.794Z,99.90
2022-08-21T19:22:30.989Z,99.90
2022-08-21T19:24:57.669Z,99.90
2022-08-21T19:27:24.492Z,99.90
2022-08-21T19:29:51.609Z,99.90
2022-08-21T19:32:19.994Z,99.90
2022-08-21T19:34:49.783Z,99.90
2022-08-21T19:37:20.298Z,99.90
2022-08-21T19:39:50.338Z,99.90
2022-08-21T19:42:21.264Z,99.90
2022-08-21T19:44:50.954Z,99.90
2022-08-21T19:47:21.175Z,99.90
2022-08-21T19:49:54.002Z,99.90
2022-08-21T19:52:22.314Z,99.90
2022-08-21T19:54:49.103Z,99.90
2022-08-21T19:57:16.805Z,99.90
2022-08-21T19:59:44.533Z,99.90
2022-08-21T20:02:13.112Z,99.90
2022-08-21T20:04:39.907Z,99.90
2022-08-21T20:07:26.613Z,99.90
2022-08-21T20:10:07.387Z,99.90
2022-08-21T20:12:37.406Z,99.90
2022-08-21T20:17:51.699Z,99.90
2022-08-21T20:20:19.741Z,99.90
2022-08-21T20:22:46.462Z,99.90
2022-08-21T20:25:13.184Z,99.90
2022-08-21T20:27:41.008Z,99.90
2022-08-21T20:30:09.747Z,99.90
2022-08-21T20:32:36.648Z,99.90
2022-08-21T20:35:05.908Z,99.90
2022-08-21T20:37:39.158Z,99.90
2022-08-21T20:40:11.757Z,99.90
2022-08-21T20:42:40.283Z,99.90
2022-08-21T20:45:08.649Z,99.90
2022-08-21T20:47:36.352Z,99.90
2022-08-21T20:53:05.567Z,99.90
2022-08-21T20:55:34.961Z,99.90
2022-08-21T20:58:08.067Z,99.90
2022-08-21T21:00:43.201Z,99.90
2022-08-21T21:03:42.274Z,99.90
2022-08-21T21:06:14.281Z,99.90
2022-08-21T21:08:46.756Z,99.90
2022-08-21T21:11:26.065Z,99.90
2022-08-21T21:13:58.125Z,99.90
2022-08-21T21:16:36.646Z,99.90
2022-08-21T21:19:20.989Z,99.90
2022-08-21T21:22:26.498Z,99.90
2022-08-21T21:25:07.440Z,99.90
2022-08-21T21:27:40.277Z,99.90
2022-08-21T21:30:07.150Z,99.90
2022-08-21T21:32:39.356Z,99.90
2022-08-21T21:35:07.785Z,99.90
2022-08-21T21:37:41.955Z,99.90
2022-08-21T21:40:31.933Z,99.90
2022-08-21T21:43:21.042Z,99.90
2022-08-21T21:46:02.661Z,99.90
2022-08-21T21:48:51.005Z,99.90
2022-08-21T21:51:45.537Z,99.90
2022-08-21T21:54:54.061Z,99.90
2022-08-21T21:57:45.668Z,99.90
2022-08-21T22:00:26.575Z,99.90
2022-08-21T22:03:13.358Z,99.90
2022-08-21T22:06:04.431Z,99.90
2022-08-21T22:09:00.286Z,99.90
2022-08-21T22:11:36.125Z,99.90
2022-08-21T22:14:10.894Z,99.90
2022-08-21T22:16:38.118Z,99.90
2022-08-21T22:19:14.656Z,99.90
2022-08-21T22:21:48.208Z,99.90
2022-08-21T22:24:22.310Z,99.90
2022-08-21T22:26:53.661Z,99.90
2022-08-21T22:29:22.728Z,99.90
2022-08-21T22:32:05.976Z,99.90
2022-08-21T22:34:33.746Z,99.90
2022-08-21T22:37:05.352Z,99.90
2022-08-21T22:39:39.033Z,99.90
2022-08-21T22:42:25.788Z,99.90
2022-08-21T22:44:54.380Z,99.90
2022-08-21T22:47:32.146Z,99.90
2022-08-21T22:50:04.840Z,99.90
2022-08-21T22:52:37.332Z,99.90
2022-08-21T22:55:32.028Z,99.90
2022-08-21T22:58:11.351Z,99.90
2022-08-21T23:01:06.926Z,99.90
2022-08-21T23:03:47.687Z,99.90
2022-08-21T23:06:36.228Z,99.90
2022-08-21T23:09:16.943Z,99.90
2022-08-21T23:11:44.763Z,99.90
2022-08-21T23:14:17.585Z,99.90
2022-08-21T23:17:32.761Z,99.90
2022-08-21T23:20:24.455Z,99.90
2022-08-21T23:23:21.577Z,99.90
2022-08-21T23:26:17.327Z,99.90
2022-08-21T23:29:12.649Z,99.90
2022-08-21T23:32:25.806Z,99.90
2022-08-21T23:38:41.031Z,99.90
2022-08-21T23:41:34.321Z,99.90
2022-08-21T23:44:41.065Z,99.90
2022-08-21T23:47:16.959Z,99.90
2022-08-21T23:49:54.532Z,99.90
2022-08-21T23:52:27.234Z,99.90
2022-08-21T23:55:22.233Z,99.90
2022-08-21T23:58:00.575Z,99.90
